Date,TemperatureHighF,TemperatureAvgF,TemperatureLowF,DewpointHighF,DewpointAvgF,DewpointLowF,HumidityHigh,HumidityAvg,HumidityLow,PressureMaxIn,PressureMinIn,WindSpeedMaxMPH,WindSpeedAvgMPH,GustSpeedMaxMPH,PrecipitationSumIn
2013-2-9,64,64,64,59,59,59,82,82,82,30.21,30.21,15,15,0,0.00
2013-2-19,64,64,64,52,52,52,63,63,63,30.24,30.24,6,6,0,0.00
2013-3-4,52,52,52,32,32,32,46,46,46,30.18,30.18,9,9,0,0.00
2013-3-5,64,64,64,55,55,55,72,72,72,29.83,29.83,58,58,0,0.00
2013-3-10,63,63,63,46,46,46,55,55,55,30.24,30.24,17,17,0,0.00
2013-3-11,73,70,68,54,46,39,59,44,28,30.24,30.03,29,23,0,0.00
2013-3-13,75,75,75,64,64,64,69,69,69,30.06,30.06,17,17,0,0.00
2013-3-14,64,64,64,52,52,52,63,63,63,30.12,30.12,23,23,0,0.00
2013-3-15,64,64,64,48,48,48,55,55,55,30.24,30.24,6,6,0,0.00
2013-3-21,66,66,66,61,61,61,82,82,82,29.88,29.88,10,10,0,0.00
2013-3-25,70,70,70,64,64,64,82,82,82,29.83,29.83,29,29,0,0.00
2013-3-31,64,64,64,55,55,55,72,72,72,30.24,30.24,17,17,0,0.00
2013-4-1,64,64,64,59,59,59,82,82,82,29.91,29.91,18,18,0,0.00
2013-4-2,73,72,72,63,62,61,68,68,68,30.09,30.09,14,14,0,0.00
2013-4-3,75,75,75,68,68,68,78,78,78,29.97,29.97,17,17,0,0.00
2013-4-4,70,70,70,64,64,64,82,82,82,29.97,29.97,17,17,0,0.00
2013-4-5,57,57,57,48,48,48,71,71,71,30.00,30.00,29,29,0,0.00
2013-4-6,63,63,63,57,57,57,82,82,82,30.12,30.12,23,23,0,0.00
2013-4-7,68,68,68,59,59,59,72,72,72,30.18,30.18,21,21,0,0.00
2013-4-8,75,75,75,61,61,61,60,60,60,30.09,30.09,30,30,0,0.00
2013-4-9,75,75,75,61,61,61,60,60,60,30.09,30.09,30,30,0,0.00
2013-4-10,77,75,72,64,64,63,73,68,65,30.15,30.09,23,21,0,0.00
2013-4-11,72,72,72,63,63,63,73,73,73,29.85,29.85,31,31,0,0.00
2013-4-12,79,75,70,68,66,64,82,75,69,29.94,29.91,32,30,0,0.00
2013-4-13,75,75,75,70,70,70,83,83,83,29.94,29.94,16,16,0,0.00
2013-4-14,77,77,77,70,70,70,78,78,78,29.97,29.97,24,24,0,0.00
2013-4-15,75,72,68,64,64,63,82,76,69,30.09,30.03,24,15,0,0.00
2013-4-16,72,72,72,61,61,61,68,68,68,30.15,30.15,22,22,0,0.00
2013-4-17,77,75,73,66,65,63,69,69,68,30.18,30.06,17,16,0,0.00
2013-4-18,77,77,77,66,66,66,69,69,69,30.06,30.06,17,16,0,0.00
2013-4-19,77,77,77,66,66,66,69,69,69,30.00,30.00,26,26,0,0.00
2013-4-20,77,77,77,72,72,72,83,83,83,30.03,30.03,10,10,0,0.00
2013-4-21,64,62,54,55,51,39,72,68,58,30.30,30.15,40,29,0,0.00
2013-4-22,75,75,75,68,68,68,78,78,78,30.03,30.03,14,14,0,0.00
2013-4-23,75,75,75,70,70,70,83,83,83,30.03,30.03,28,28,0,0.00
2013-4-24,75,75,75,70,70,70,83,83,83,30.09,30.09,18,18,0,0.00
2013-4-25,77,74,73,70,69,68,83,81,78,30.09,30.06,30,20,0,0.00
2013-4-26,75,74,72,70,68,63,83,80,73,30.18,30.18,31,28,0,0.00
2013-4-28,72,70,68,63,62,61,82,75,68,30.21,30.00,33,23,0,0.00
2013-4-29,77,74,73,70,67,66,78,78,69,30.09,29.97,29,19,0,0.00
2013-5-1,79,77,75,72,68,63,83,71,57,30.03,30.00,6,5,0,0.00
2013-5-2,75,75,75,70,68,68,83,79,78,29.97,29.97,31,24,0,0.00
2013-5-4,81,73,68,70,66,63,83,79,69,29.83,29.77,43,23,0,0.00
2013-5-5,75,75,75,68,68,68,78,78,78,29.83,29.83,2,2,0,0.00
2013-5-6,79,73,72,68,62,61,69,68,68,30.09,29.88,21,14,0,0.00
2013-5-7,77,73,63,66,64,54,78,72,68,30.03,30.00,23,16,0,0.00
2013-5-8,70,69,68,57,56,55,68,64,60,30.09,30.00,16,8,0,0.00
2013-5-9,77,74,70,64,61,55,68,64,60,30.21,30.09,23,15,0,0.00
2013-5-10,77,77,77,70,70,70,78,78,78,30.12,30.12,23,22,0,0.00
2013-5-11,79,77,75,70,69,68,83,75,69,30.12,30.09,17,14,0,0.00
2013-5-12,75,75,75,73,71,68,94,89,78,30.06,30.00,17,17,0,0.00
2013-5-14,79,74,68,72,66,59,82,75,68,30.27,30.09,17,16,0,0.00
2013-5-15,77,75,73,72,68,63,83,76,68,30.24,30.21,23,22,0,0.00
2013-5-16,77,68,70,68,11,-100,83,78,69,30.15,30.15,14,12,0,0.00
2013-5-17,75,75,75,70,57,-100,83,83,78,30.15,30.12,23,17,0,0.00
2013-5-19,75,74,72,73,68,63,94,84,73,30.15,30.12,23,20,0,0.00
2013-5-20,79,77,75,72,71,68,83,81,69,30.12,30.12,29,25,0,0.00
2013-5-21,79,78,77,72,70,68,83,77,69,30.06,30.06,25,24,0,0.00
2013-5-22,82,79,77,77,74,72,83,83,83,30.06,30.00,26,22,0,0.00
2013-5-23,90,81,77,81,75,72,83,80,74,30.06,30.06,96,44,0,0.00
2013-5-24,79,78,77,73,72,72,83,83,83,30.06,30.06,8,7,0,0.00
2013-5-25,70,70,70,61,61,61,73,73,73,30.30,30.30,9,7,0,0.00
2013-5-26,79,77,72,72,62,52,78,62,39,30.27,30.06,15,12,0,0.00
2013-5-27,82,79,77,72,68,66,69,69,69,30.18,30.15,17,13,0,0.00
2013-5-28,77,76,75,72,71,70,83,83,83,30.15,30.15,26,21,0,0.00
2013-5-29,79,76,75,73,71,70,83,83,83,30.15,30.15,32,30,0,0.00
2013-5-30,77,77,77,72,72,72,83,83,83,30.30,30.30,21,21,0,0.00
2013-5-31,77,77,77,72,72,72,83,83,83,30.12,30.06,34,27,0,0.00
2013-6-1,77,77,77,72,72,72,83,83,83,30.12,30.12,28,28,0,0.00
2013-6-28,79,79,79,73,73,73,83,83,83,30.00,30.00,17,17,0,0.00
2013-7-1,79,79,79,68,68,68,70,70,70,30.06,30.06,23,23,0,0.00
2013-7-7,81,81,81,70,70,70,71,71,71,30.12,30.12,20,20,0,0.00
2013-7-23,81,81,81,76,74,73,85,80,77,30.09,30.00,9,8,0,0.00
2013-7-24,81,81,81,73,73,73,77,77,77,29.94,29.94,15,15,0,0.00
2013-7-25,81,80,79,74,74,73,84,82,77,29.97,29.91,17,8,0,0.00
2013-7-26,79,79,79,74,74,74,84,84,84,29.91,29.91,2,2,0,0.00
2013-7-27,79,79,79,74,74,74,84,84,84,30.00,30.00,15,10,0,0.00
2013-7-28,81,80,79,74,74,73,84,81,77,30.03,30.00,17,14,0,0.00
2013-7-29,79,79,79,74,74,74,84,84,84,30.12,30.12,12,12,0,0.00
2013-7-31,77,77,77,72,72,72,84,84,84,30.09,30.09,18,18,0,0.00
2013-8-1,79,79,79,74,74,74,84,84,84,30.12,30.12,23,23,0,0.00
2013-8-3,79,79,79,71,71,71,77,77,77,30.12,30.12,17,17,0,0.00
2013-8-6,79,79,79,74,74,74,84,84,84,30.03,30.03,13,13,0,0.00
2013-8-7,79,79,79,71,71,71,77,77,77,29.97,29.97,16,16,0,0.00
2013-8-8,79,79,79,71,71,71,77,77,77,30.12,30.12,14,14,0,0.00
2013-8-9,79,79,79,74,74,74,84,84,84,30.03,30.03,27,27,0,0.00
2013-8-12,81,81,81,70,70,70,71,71,71,30.06,30.06,17,17,0,0.00
2013-8-14,79,79,79,71,71,71,77,77,77,30.06,30.06,16,16,0,0.00
2013-8-15,81,81,81,76,76,76,85,85,85,30.06,30.06,11,11,0,0.00
2013-8-16,79,79,79,74,74,74,84,84,84,30.06,30.06,13,13,0,0.00
2013-8-18,79,79,79,71,71,71,77,77,77,30.06,30.06,11,11,0,0.00
2013-8-19,79,79,79,71,71,71,77,77,77,30.06,30.06,11,11,0,0.00
2013-8-21,79,79,79,71,71,71,77,77,77,30.12,30.12,26,26,0,0.00
2013-8-23,79,79,79,71,71,71,77,77,77,30.12,30.12,7,7,0,0.00
2013-8-24,79,79,79,71,71,71,77,77,77,30.06,30.06,11,11,0,0.00
2013-8-25,79,79,79,71,71,71,77,77,77,30.06,30.06,17,17,0,0.00
2013-8-29,79,79,79,74,74,74,84,84,84,30.06,30.06,7,7,0,0.00
2013-8-31,77,77,77,72,72,72,84,84,84,30.12,30.12,11,11,0,0.00
2013-9-2,79,79,79,71,71,71,77,77,77,30.12,30.12,29,29,0,0.00
2013-9-3,79,79,79,71,71,71,77,77,77,30.12,30.12,17,17,0,0.00
2013-9-4,77,77,77,72,72,72,84,84,84,30.06,30.06,11,11,0,0.00
2013-9-5,79,79,79,71,71,71,77,77,77,30.12,30.12,17,17,0,0.00
2013-9-7,79,79,79,71,71,71,77,77,77,30.06,30.06,11,11,0,0.00
2013-9-8,81,81,81,76,76,76,85,85,85,30.06,30.06,10,10,0,0.00
2013-9-9,79,79,79,71,71,71,77,77,77,30.12,30.12,17,17,0,0.00
2013-9-10,81,80,79,76,74,71,85,81,77,30.12,29.97,22,20,0,0.00
2013-9-12,81,80,79,73,72,71,77,77,77,30.12,30.12,11,8,0,0.00
2013-9-14,73,73,73,73,73,73,100,100,100,30.12,30.12,11,11,0,0.00
2013-9-15,79,79,79,71,71,71,77,77,77,30.12,30.12,17,17,0,0.00
2013-9-17,79,79,79,71,71,71,77,77,77,30.12,30.12,17,17,0,0.00
2013-9-18,81,81,81,76,76,76,85,85,85,30.09,30.09,15,15,0,0.00
2013-9-19,79,79,79,71,71,71,77,77,77,30.12,30.12,11,11,0,0.00
2013-9-22,79,79,79,71,71,71,77,77,77,30.12,30.12,17,17,0,0.00
2013-9-23,79,79,79,71,71,71,77,77,77,30.12,30.12,11,11,0,0.00
2013-9-25,79,79,79,71,71,71,77,77,77,30.12,30.12,17,17,0,0.00
2013-9-27,79,79,79,71,71,71,77,77,77,30.12,30.12,17,17,0,0.00
2013-9-30,81,80,79,76,74,71,85,82,77,30.12,29.97,17,10,0,0.00
2013-10-3,79,79,79,71,71,71,77,77,77,30.18,30.18,34,34,0,0.00
2013-10-5,79,79,79,71,71,71,77,77,77,30.12,30.12,11,11,0,0.00
2013-11-7,81,81,81,70,70,70,71,71,71,29.94,29.94,10,10,0,0.00
2013-11-15,73,73,73,65,65,65,75,75,75,30.24,30.24,23,23,0,0.00
2013-11-16,75,75,75,67,67,67,76,76,76,30.18,30.18,31,31,0,0.00
2013-11-17,77,77,77,69,69,69,77,77,77,30.12,30.12,11,11,0,0.00
2013-11-18,81,80,79,76,74,71,85,81,77,30.06,30.06,15,14,0,0.00
2013-11-19,68,68,68,62,62,62,82,82,82,29.91,29.91,31,31,0,0.00
2013-11-20,66,66,66,61,61,61,82,82,82,30.12,30.12,14,14,0,0.00
2013-11-22,75,75,75,70,70,70,83,83,83,30.12,30.12,28,28,0,0.00
2013-11-23,75,75,75,70,70,70,83,83,83,30.09,30.09,2,2,0,0.00
2013-11-24,61,61,61,55,55,55,80,80,80,30.09,30.09,31,31,0,0.00
2013-11-26,77,77,77,72,72,72,84,84,84,30.03,30.03,34,34,0,0.00
2013-11-30,75,75,75,70,70,70,83,83,83,30.24,30.24,34,34,0,0.00
2013-12-2,79,79,79,71,71,71,77,77,77,29.94,29.94,15,15,0,0.00
2013-12-3,73,73,73,68,68,68,83,83,83,29.97,29.97,6,6,0,0.00
2013-12-5,70,70,70,64,64,64,82,82,82,29.97,29.97,6,6,0,0.00
2013-12-8,79,79,79,74,74,74,84,84,84,30.18,30.18,10,10,0,0.00
2013-12-10,75,75,75,70,70,70,83,83,83,30.15,30.15,16,16,0,0.00
2013-12-15,72,72,72,66,66,66,83,83,83,29.85,29.85,43,43,0,0.00
2013-12-16,79,77,75,73,72,71,91,84,77,30.09,30.09,15,12,0,0.00
2013-12-17,77,77,77,72,72,72,84,84,84,30.09,30.09,22,22,0,0.00
2013-12-20,75,75,75,61,61,61,62,62,62,30.15,30.15,15,15,0,0.00
2013-12-24,77,77,77,72,72,72,84,84,84,30.21,30.21,10,10,0,0.00
2013-12-25,72,72,72,63,63,63,75,75,75,30.18,30.18,34,34,0,0.00
2013-12-26,68,68,68,60,60,60,74,74,74,30.27,30.27,28,28,0,0.00
2013-12-29,75,75,75,70,70,70,83,83,83,30.15,30.15,15,15,0,0.00
2013-12-30,77,68,59,72,63,53,84,82,80,30.15,30.03,22,18,0,0.00
2013-12-31,61,61,61,55,55,55,80,80,80,30.18,30.18,32,32,0,0.00
2014-1-1,54,54,54,47,47,47,78,78,78,30.39,30.39,13,13,0,0.00
2014-1-2,73,73,73,71,71,71,91,91,91,30.12,30.12,22,22,0,0.00